Create Custom Reports and Graphics: Custom Report

Soquel - CalFire

Current Conditions

5/24/19 2:15 AM (-07:00)
Updated Every 15 Minutes
Temp 50.1 °F   2.2
RH 92 %   0
Dew Pt 47.7 °F   2.3
Wind Spd 0.0 mph
Wind Dir ESE | 108 °
Wind Gust 0.4 mph   1.0
Latest Rain 0.00 In
Daily Rain 0.00 In
Leaf Wet 15.0 mins
Daily Min Temp 49.6 °F   1.9
Daily Max Temp 50.4 °F   1.1

Daily Summary

Last 30 Days

Daily Data | America/Los_Angeles
as of 5/24/19 2:18 AM PDT
Date Daily Max Temp (°F) Daily Min Temp (°F) Daily Rain (In) Seasonal Rainfall (In) Daily Solar Rad (Cal/cm2) Daily ETo (in) Wind Spd (mph) Daily Max Wind (mph) Max Wind Dir (°) Dew Pt (°F) Max RH (%) Min RH (%) Leaf Wet (hrs) Soil Temp (°F) Soil Moist1 (%) Fuel Moisture (%) Max Fuel Moisture (%) Min Fuel Moisture (%) Bat Volt Min Day (V)
5/23/19 59.8 47.2 0.00 58.55 217 0.06 0.9 7.7 SW | 227 48.5 93 76 8.8 59.3 30.2 16 19 11 12.16
5/22/19 69.0 46.7 0.00 58.55 523 0.14 1.5 10.9 WSW | 239 45.6 92 38 7.4 59.4 31.2 15 27 0 12.14
5/21/19 59.6 45.6 0.15 58.55 428 0.11 2.0 13.0 SW | 234 45.8 94 57 18.0 59.6 32.2 27 40 14 12.11
5/20/19 63.9 41.3 0.01 58.40 328 0.08 1.3 9.8 WSW | 237 44.5 95 54 12.7 59.9 31.6 27 41 11 12.13
5/19/19 56.9 44.7 0.66 58.39 373 0.09 1.4 11.8 SSW | 208 45.8 95 67 21.0 60.2 33.6 40 51 26 12.01
5/18/19 53.4 41.4 1.01 57.73 160 0.04 1.3 10.0 SSE | 150 44.4 94 72 21.2 60.4 30.4 33 49 17 12.08
5/17/19 62.6 42.0 0.00 56.72 329 0.08 1.2 7.4 SW | 225 43.3 94 50 11.8 60.5 28.8 23 34 9 12.15
5/16/19 56.2 43.3 0.20 56.72 321 0.08 2.2 12.9 SSW | 210 46.2 94 67 21.1 60.5 31.2 39 48 26 12.03
5/15/19 58.5 49.5 1.58 56.52 129 0.04 1.5 14.3 SE | 127 50.6 94 78 17.0 60.3 21.2 30 46 14 12.08
5/14/19 70.2 46.0 0.00 54.94 443 0.12 1.1 7.9 W | 267 49.7 94 52 7.8 60.1 17.3 11 17 0 12.12
5/13/19 76.5 48.3 0.00 54.94 608 0.17 1.2 6.9 WSW | 244 47.9 92 41 5.6 59.9 17.5 9 18 0 12.12
5/12/19 75.8 44.4 0.00 54.94 615 0.18 1.1 7.8 WSW | 254 50.0 94 46 12.9 59.8 17.8 10 18 0 12.12
5/11/19 75.2 48.3 0.00 54.94 612 0.18 1.4 8.2 WNW | 293 49.6 93 41 4.6 59.7 18.1 10 21 0 12.17
5/10/19 70.4 49.4 0.00 54.94 491 0.13 1.3 9.8 SSW | 205 49.2 93 49 0.8 59.6 18.4 14 23 0 12.07
5/9/19 55.0 48.2 0.04 54.94 151 0.04 0.7 7.3 SSW | 213 49.2 95 84 14.3 59.5 18.5 23 29 15 12.09
5/8/19 68.2 47.1 0.00 54.90 520 0.14 1.4 7.8 NW | 324 48.6 94 55 5.6 59.4 18.2 10 16 0 12.14
5/7/19 66.0 47.2 0.00 54.90 585 0.15 1.3 10.6 S | 180 46.9 91 55 0.1 59.4 18.2 11 18 0 12.07
5/6/19 56.8 46.4 0.00 54.90 185 0.05 1.1 11.2 SW | 220 46.4 92 71 8.3 59.4 18.3 15 18 12 12.15
5/5/19 63.0 43.8 0.00 54.90 507 0.13 1.3 13.9 SW | 235 44.2 93 53 8.0 59.3 18.4 10 15 2 12.13
5/4/19 70.9 42.9 0.00 54.90 620 0.17 1.4 8.1 WSW | 238 42.2 93 38 5.1 59.2 18.7 8 13 0 12.11
5/3/19 77.7 48.9 0.00 54.90 605 0.17 1.4 7.2 WSW | 238 38.6 70 16 0.0 59.2 19.2 6 12 0 12.15
5/2/19 75.6 47.0 0.00 54.90 601 0.17 1.6 9.2 SSW | 203 36.9 67 18 0.0 59.1 19.5 8 14 0 12.15
5/1/19 71.6 42.5 0.00 54.90 612 0.16 1.5 10.1 WNW | 303 43.9 94 34 8.8 59.1 19.9 11 22 0 12.12
4/30/19 62.2 43.8 0.01 54.90 432 0.11 1.6 13.1 S | 177 45.3 93 53 13.5 59.1 20.3 14 22 1 12.14
4/29/19 57.8 45.2 0.00 54.89 242 0.06 1.2 8.9 NW | 312 45.0 93 64 5.5 59.0 20.4 14 17 9 12.17
4/28/19 65.9 41.8 0.00 54.89 577 0.15 1.3 8.1 WSW | 249 45.2 94 56 7.9 58.8 20.8 11 18 0 12.15
4/27/19 65.9 45.8 0.00 54.89 403 0.10 1.2 7.3 NW | 315 47.9 95 60 10.5 58.6 21.1 13 18 4 12.14
4/26/19 73.3 47.4 0.00 54.89 592 0.16 1.1 7.3 NW | 304 48.2 94 45 6.2 58.2 21.4 10 18 0 12.14
4/25/19 76.4 50.0 0.00 54.89 588 0.17 1.0 6.5 W | 266 50.8 92 45 5.0 57.9 22.0 9 16 0 12.16
4/24/19 83.5 59.6 0.00 54.89 573 0.17 1.3 6.9 SW | 224 50.6 77 29 0.0 57.6 22.7 6 11 0 12.16
Max 83.5 59.6 1.58 - 620 0.18 2.2 14.3 - 50.8 95 84 21.2 60.5 33.6 40 51 26 12.17
Avg - - - - - - 1.3 - - 46.4 - - - 59.4 22.6 16 24 6 -
Min 53.4 41.3 0.00 - 129 0.04 0.7 6.5 - 36.9 67 16 0.0 57.6 17.3 6 11 0 12.01